Time;durP1;ratioP1;P1;durP2;ratioP2;P2;SDS_P1;SDS_P2;PMS_P1;PMS_P2;Temp;Humidity;BMP_temperature;BMP_pressure;BME280_temperature;BME280_humidity;BME280_pressure;Samples;Min_cycle;Max_cycle;Signal;HPM_P1;HPM_P2
2022/08/10 00:01:07;;;;;;;2.70;2.03;;;;;;;-143.66;100.00;63766.88;5069902;28;20504;-66
2022/08/10 00:03:32;;;;;;;2.10;1.90;;;;;;;-143.66;100.00;63766.88;5064595;28;20036;-66
2022/08/10 00:05:58;;;;;;;3.50;2.35;;;;;;;-143.66;100.00;63766.88;5043793;28;20559;-66
2022/08/10 00:08:24;;;;;;;2.42;2.10;;;;;;;-143.66;100.00;63766.88;5061619;28;20040;-66
2022/08/10 00:10:58;;;;;;;2.45;2.25;;;;;;;-143.66;100.00;63766.88;5054583;28;20071;-66
2022/08/10 00:13:25;;;;;;;2.80;2.30;;;;;;;-143.66;100.00;63766.88;5060905;28;20573;-66
2022/08/10 00:15:51;;;;;;;2.90;2.42;;;;;;;-143.66;100.00;63766.88;5063865;28;20097;-66
2022/08/10 00:18:17;;;;;;;2.10;1.95;;;;;;;-143.66;100.00;63766.88;5072404;28;20044;-66
2022/08/10 00:20:43;;;;;;;2.85;2.13;;;;;;;-143.66;100.00;63766.88;5061801;28;20043;-66
2022/08/10 00:23:09;;;;;;;2.40;2.20;;;;;;;-143.66;100.00;63766.88;5069384;28;20075;-66
2022/08/10 00:25:34;;;;;;;2.45;2.17;;;;;;;-143.66;100.00;63766.88;5057501;28;20038;-66
2022/08/10 00:28:00;;;;;;;2.33;2.13;;;;;;;-143.66;100.00;63766.88;5064208;28;20172;-66
2022/08/10 00:30:25;;;;;;;2.83;2.10;;;;;;;-143.66;100.00;63766.88;5069995;28;20794;-66
2022/08/10 00:32:51;;;;;;;3.13;2.40;;;;;;;-143.66;100.00;63766.88;5065871;28;20043;-66
2022/08/10 00:35:16;;;;;;;2.17;1.98;;;;;;;-143.66;100.00;63766.88;5061345;28;20040;-66
2022/08/10 00:37:42;;;;;;;2.08;1.88;;;;;;;-143.66;100.00;63766.88;5062442;28;20036;-66
2022/08/10 00:40:08;;;;;;;2.15;1.95;;;;;;;-143.66;100.00;63766.88;5062177;28;20032;-66
2022/08/10 00:42:33;;;;;;;2.97;2.30;;;;;;;-143.66;100.00;63766.88;5059072;28;20127;-66
2022/08/10 00:44:59;;;;;;;1.75;1.65;;;;;;;-143.66;100.00;63766.88;5063123;28;20501;-66
2022/08/10 00:47:24;;;;;;;2.10;1.90;;;;;;;-143.66;100.00;63766.88;5070241;28;20072;-66
2022/08/10 00:49:50;;;;;;;1.75;1.65;;;;;;;-143.66;100.00;63766.88;5063217;28;20056;-66
2022/08/10 00:52:18;;;;;;;1.80;1.70;;;;;;;-143.66;100.00;63766.88;5066623;28;20048;-66
2022/08/10 00:54:46;;;;;;;2.17;1.95;;;;;;;-143.66;100.00;63766.88;5058402;28;20112;-66
2022/08/10 00:57:13;;;;;;;2.30;2.10;;;;;;;-143.66;100.00;63766.88;5065666;28;20049;-66
2022/08/10 00:59:39;;;;;;;2.28;2.08;;;;;;;-143.66;100.00;63766.88;5063025;28;20028;-66
2022/08/10 01:02:05;;;;;;;1.90;1.80;;;;;;;-143.66;100.00;63766.88;5069412;28;20393;-66
2022/08/10 01:04:31;;;;;;;3.10;2.22;;;;;;;-143.66;100.00;63766.88;5064059;28;20037;-66
2022/08/10 01:07:10;;;;;;;2.05;1.92;;;;;;;-143.66;100.00;63766.88;5059293;28;20060;-66
2022/08/10 01:10:09;;;;;;;2.03;1.83;;;;;;;-143.66;100.00;63766.88;5060078;28;20096;-66
2022/08/10 01:12:58;;;;;;;;;;;;;;;-143.66;100.00;63766.88;5065553;28;20036;-66
2022/08/10 01:15:33;;;;;;;2.30;2.10;;;;;;;-143.66;100.00;63766.88;5053004;28;20019;-66
2022/08/10 01:18:43;;;;;;;2.55;2.15;;;;;;;-143.66;100.00;63766.88;5062595;28;20036;-66
2022/08/10 01:21:25;;;;;;;2.10;1.90;;;;;;;-143.66;100.00;63766.88;5056003;28;22119;-66
2022/08/10 01:23:50;;;;;;;2.75;2.10;;;;;;;-143.66;100.00;63766.88;5063267;28;20101;-66
2022/08/10 01:26:35;;;;;;;2.20;2.00;;;;;;;-143.66;100.00;63766.88;5056918;28;20047;-66
2022/08/10 01:29:34;;;;;;;2.20;2.00;;;;;;;-143.66;100.00;63766.88;5057291;28;20140;-66
2022/08/10 01:32:04;;;;;;;2.30;2.10;;;;;;;-143.66;100.00;63766.88;5062650;28;20055;-66
2022/08/10 01:34:48;;;;;;;2.20;2.00;;;;;;;-143.66;100.00;63766.88;5065320;28;20035;-66
2022/08/10 01:37:18;;;;;;;2.13;1.92;;;;;;;-143.66;100.00;63766.88;5060957;28;20088;-66
2022/08/10 01:39:50;;;;;;;2.47;2.00;;;;;;;-143.66;100.00;63766.88;5055683;28;20090;-66
2022/08/10 01:42:18;;;;;;;2.22;2.03;;;;;;;-143.66;100.00;63766.88;5062537;28;20132;-66
2022/08/10 01:45:01;;;;;;;2.03;1.80;;;;;;;-143.66;100.00;63766.88;5059826;28;20075;-66
2022/08/10 01:50:23;;;;;;;;;;;;;;;-143.66;100.00;63766.88;5056301;28;20083;-66
2022/08/10 01:52:54;;;;;;;2.30;2.10;;;;;;;-143.66;100.00;63766.88;5055588;28;19916;-66
2022/08/10 01:55:21;;;;;;;2.38;2.10;;;;;;;-143.66;100.00;63766.88;5059670;28;20390;-66
2022/08/10 01:57:49;;;;;;;2.10;1.90;;;;;;;-143.66;100.00;63766.88;5061867;28;20040;-66
2022/08/10 02:00:15;;;;;;;2.42;1.80;;;;;;;-143.66;100.00;63766.88;5056958;28;20105;-66
2022/08/10 02:02:41;;;;;;;3.17;2.40;;;;;;;-143.66;100.00;63766.88;5047624;28;20434;-66
2022/08/10 02:05:08;;;;;;;2.45;2.15;;;;;;;-143.66;100.00;63766.88;5061788;28;20032;-66
2022/08/10 02:07:38;;;;;;;2.20;2.00;;;;;;;-143.66;100.00;63766.88;5058900;28;20057;-66
2022/08/10 02:10:08;;;;;;;2.35;2.15;;;;;;;-143.66;100.00;63766.88;5060564;28;20051;-66
2022/08/10 02:12:35;;;;;;;4.05;2.47;;;;;;;-143.66;100.00;63766.88;5059472;28;20055;-66
2022/08/10 02:15:06;;;;;;;2.20;2.00;;;;;;;-143.66;100.00;63766.88;5059727;28;20041;-66
2022/08/10 02:17:35;;;;;;;1.85;1.75;;;;;;;-143.66;100.00;63766.88;5064128;28;21942;-66
2022/08/10 02:20:14;;;;;;;2.13;1.95;;;;;;;-143.66;100.00;63766.88;5056044;28;20153;-66
2022/08/10 02:22:42;;;;;;;2.20;2.00;;;;;;;-143.66;100.00;63766.88;5058311;28;20052;-66
2022/08/10 02:25:10;;;;;;;2.28;2.08;;;;;;;-143.66;100.00;63766.88;5061020;28;20051;-65
2022/08/10 02:27:37;;;;;;;2.38;2.17;;;;;;;-143.66;100.00;63766.88;5062857;28;20087;-66
2022/08/10 02:30:05;;;;;;;2.50;2.30;;;;;;;-143.66;100.00;63766.88;5060249;28;20123;-66
2022/08/10 02:32:31;;;;;;;3.28;2.25;;;;;;;-143.66;100.00;63766.88;5061096;28;20086;-66
2022/08/10 02:34:59;;;;;;;2.47;2.20;;;;;;;-143.66;100.00;63766.88;5062698;28;20028;-66
2022/08/10 02:37:26;;;;;;;2.05;1.88;;;;;;;-143.66;100.00;63766.88;5064639;28;20071;-66
2022/08/10 02:39:52;;;;;;;2.67;2.00;;;;;;;-143.66;100.00;63766.88;5053865;28;20036;-66
2022/08/10 02:42:30;;;;;;;2.40;2.20;;;;;;;-143.66;100.00;63766.88;5059651;28;20049;-66
2022/08/10 02:45:07;;;;;;;2.28;2.05;;;;;;;-143.66;100.00;63766.88;5066980;28;20040;-66
2022/08/10 02:47:48;;;;;;;2.10;1.90;;;;;;;-143.66;100.00;63766.88;5060953;28;20037;-66
2022/08/10 02:50:25;;;;;;;2.30;2.08;;;;;;;-143.66;100.00;63766.88;5064499;28;20043;-66
2022/08/10 02:53:10;;;;;;;2.15;1.95;;;;;;;-143.66;100.00;63766.88;5061382;28;20044;-66
2022/08/10 02:55:45;;;;;;;2.10;1.90;;;;;;;-143.66;100.00;63766.88;5064316;28;20032;-66
2022/08/10 02:58:28;;;;;;;2.55;2.20;;;;;;;-143.66;100.00;63766.88;5065049;28;20032;-66
2022/08/10 03:00:56;;;;;;;2.42;2.20;;;;;;;-143.66;100.00;63766.88;5054322;28;20040;-66
2022/08/10 03:03:38;;;;;;;2.15;1.95;;;;;;;-143.66;100.00;63766.88;5063642;28;20056;-66
2022/08/10 03:06:09;;;;;;;2.40;2.20;;;;;;;-143.66;100.00;63766.88;5067930;28;20045;-66
2022/08/10 03:08:39;;;;;;;2.30;2.10;;;;;;;-143.66;100.00;63766.88;5066985;28;20489;-66
2022/08/10 03:11:07;;;;;;;2.45;2.22;;;;;;;-143.66;100.00;63766.88;5069713;28;20032;-66
2022/08/10 03:13:34;;;;;;;2.58;2.15;;;;;;;-143.66;100.00;63766.88;5066691;28;20060;-66
2022/08/10 03:16:01;;;;;;;2.15;1.95;;;;;;;-143.66;100.00;63766.88;5063101;28;20102;-66
2022/08/10 03:18:29;;;;;;;2.13;1.98;;;;;;;-143.66;100.00;63766.88;5055135;28;20119;-66
2022/08/10 03:20:56;;;;;;;1.90;1.80;;;;;;;-143.66;100.00;63766.88;5062324;28;20501;-66
2022/08/10 03:23:23;;;;;;;2.13;1.92;;;;;;;-143.66;100.00;63766.88;5063783;28;20167;-66
2022/08/10 03:25:54;;;;;;;2.30;2.10;;;;;;;-143.66;100.00;63766.88;5063205;28;20047;-66
2022/08/10 03:28:22;;;;;;;2.97;1.95;;;;;;;-143.66;100.00;63766.88;5066356;28;20616;-66
2022/08/10 03:30:48;;;;;;;2.17;1.98;;;;;;;-143.66;100.00;63766.88;5068198;28;20032;-66
2022/08/10 03:33:14;;;;;;;2.63;2.03;;;;;;;-143.66;100.00;63766.88;5069396;28;20044;-66
2022/08/10 03:35:40;;;;;;;2.47;2.10;;;;;;;-143.66;100.00;63766.88;5065461;28;20077;-66
2022/08/10 03:38:06;;;;;;;1.90;1.80;;;;;;;-143.66;100.00;63766.88;5057922;28;20040;-66
2022/08/10 03:40:35;;;;;;;3.55;1.95;;;;;;;-143.66;100.00;63766.88;5065937;28;20028;-66
2022/08/10 03:43:02;;;;;;;2.55;2.35;;;;;;;-143.66;100.00;63766.88;5064137;28;20044;-66
2022/08/10 03:45:30;;;;;;;2.40;2.13;;;;;;;-143.66;100.00;63766.88;5062986;28;20115;-66
2022/08/10 03:47:57;;;;;;;3.10;2.17;;;;;;;-143.66;100.00;63766.88;5062562;28;20033;-66
2022/08/10 03:50:24;;;;;;;2.00;1.90;;;;;;;-143.66;100.00;63766.88;5061986;28;20397;-66
2022/08/10 03:52:51;;;;;;;2.30;2.10;;;;;;;-143.66;100.00;63766.88;5071729;28;20127;-66
2022/08/10 03:55:18;;;;;;;2.70;2.15;;;;;;;-143.66;100.00;63766.88;5063833;28;20033;-66
2022/08/10 03:57:43;;;;;;;2.15;1.95;;;;;;;-143.66;100.00;63766.88;5062942;28;20070;-66
2022/08/10 04:00:09;;;;;;;2.47;2.28;;;;;;;-143.66;100.00;63766.88;5061088;28;20033;-66
2022/08/10 04:02:36;;;;;;;2.17;1.98;;;;;;;-143.66;100.00;63766.88;5065968;28;20044;-66
2022/08/10 04:05:01;;;;;;;3.10;2.00;;;;;;;-143.66;100.00;63766.88;5069967;28;20047;-66
2022/08/10 04:07:28;;;;;;;2.58;2.03;;;;;;;-143.66;100.00;63766.88;5065547;28;20044;-66
2022/08/10 04:09:53;;;;;;;2.00;1.80;;;;;;;-143.66;100.00;63766.88;5059011;28;20033;-66
2022/08/10 04:12:19;;;;;;;2.28;2.08;;;;;;;-143.66;100.00;63766.88;5067199;28;20051;-66
2022/08/10 04:14:45;;;;;;;3.03;2.00;;;;;;;-143.66;100.00;63766.88;5061348;28;20032;-66
2022/08/10 04:17:11;;;;;;;1.92;1.83;;;;;;;-143.66;100.00;63766.88;5062096;28;20036;-66
2022/08/10 04:19:50;;;;;;;2.80;2.28;;;;;;;-143.66;100.00;63766.88;5062781;28;20099;-66
2022/08/10 04:22:19;;;;;;;2.10;1.92;;;;;;;-143.66;100.00;63766.88;5063202;28;20044;-66
2022/08/10 04:24:48;;;;;;;2.17;1.98;;;;;;;-143.66;100.00;63766.88;5062062;28;20544;-66
2022/08/10 04:27:15;;;;;;;2.22;2.03;;;;;;;-143.66;100.00;63766.88;5052873;28;20067;-66
2022/08/10 04:29:42;;;;;;;2.10;1.90;;;;;;;-143.66;100.00;63766.88;5066323;28;20044;-66
2022/08/10 04:32:09;;;;;;;2.30;2.10;;;;;;;-143.66;100.00;63766.88;5066397;28;20044;-66
2022/08/10 04:34:39;;;;;;;2.30;2.10;;;;;;;-143.66;100.00;63766.88;5054751;28;20101;-66
2022/08/10 04:37:07;;;;;;;2.10;1.90;;;;;;;-143.66;100.00;63766.88;5068226;28;20040;-66
2022/08/10 04:39:33;;;;;;;2.42;2.17;;;;;;;-143.66;100.00;63766.88;5067915;28;20071;-66
2022/08/10 04:41:59;;;;;;;3.83;2.28;;;;;;;-143.66;100.00;63766.88;5061094;28;20048;-66
2022/08/10 04:44:25;;;;;;;2.20;2.00;;;;;;;-143.66;100.00;63766.88;5057879;28;20050;-66
2022/08/10 04:46:50;;;;;;;2.35;2.15;;;;;;;-143.66;100.00;63766.88;5064835;28;20040;-66
2022/08/10 04:49:15;;;;;;;2.38;2.03;;;;;;;-143.66;100.00;63766.88;5035877;28;20670;-66
2022/08/10 04:51:41;;;;;;;2.67;2.20;;;;;;;-143.66;100.00;63766.88;5063710;28;20068;-66
2022/08/10 04:54:06;;;;;;;2.00;1.80;;;;;;;-143.66;100.00;63766.88;5059148;28;20063;-66
2022/08/10 04:56:35;;;;;;;1.90;1.80;;;;;;;-143.66;100.00;63766.88;5064231;28;20049;-66
2022/08/10 04:59:00;;;;;;;2.88;1.98;;;;;;;-143.66;100.00;63766.88;5061008;28;20048;-66
2022/08/10 05:01:26;;;;;;;2.20;2.00;;;;;;;-143.66;100.00;63766.88;5062477;28;20032;-65
2022/08/10 05:03:51;;;;;;;2.63;2.00;;;;;;;-143.66;100.00;63766.88;5057551;28;20509;-66
2022/08/10 05:06:17;;;;;;;2.05;1.85;;;;;;;-143.66;100.00;63766.88;5064196;28;20040;-67
2022/08/10 05:08:42;;;;;;;2.47;2.20;;;;;;;-143.66;100.00;63766.88;5055470;28;20048;-66
2022/08/10 05:11:08;;;;;;;2.30;2.10;;;;;;;-143.66;100.00;63766.88;5064068;28;20032;-66
2022/08/10 05:13:33;;;;;;;2.80;2.00;;;;;;;-143.66;100.00;63766.88;5058858;28;20041;-66
2022/08/10 05:15:59;;;;;;;2.00;1.80;;;;;;;-143.66;100.00;63766.88;5054587;28;20032;-66
2022/08/10 05:18:24;;;;;;;2.88;2.25;;;;;;;-143.66;100.00;63766.88;5055731;28;20082;-65
2022/08/10 05:20:50;;;;;;;2.25;2.03;;;;;;;-143.66;100.00;63766.88;5052452;28;20040;-65
2022/08/10 05:23:15;;;;;;;2.38;2.13;;;;;;;-143.66;100.00;63766.88;5058114;28;20406;-65
2022/08/10 05:25:41;;;;;;;2.63;2.38;;;;;;;-143.66;100.00;63766.88;5059858;28;20045;-66
2022/08/10 05:28:06;;;;;;;2.65;2.33;;;;;;;-143.66;100.00;63766.88;5060861;28;20032;-65
2022/08/10 05:30:32;;;;;;;2.58;2.25;;;;;;;-143.66;100.00;63766.88;5059642;28;20043;-65
2022/08/10 05:32:57;;;;;;;3.22;2.50;;;;;;;-143.66;100.00;63766.88;5063225;28;20032;-65
2022/08/10 05:35:23;;;;;;;2.22;2.03;;;;;;;-143.66;100.00;63766.88;5062478;28;20052;-65
2022/08/10 05:37:55;;;;;;;2.60;2.40;;;;;;;-143.66;100.00;63766.88;5056940;28;20375;-65
2022/08/10 05:40:22;;;;;;;2.40;2.20;;;;;;;-143.66;100.00;63766.88;5057363;28;20040;-65
2022/08/10 05:42:47;;;;;;;2.72;2.25;;;;;;;-143.66;100.00;63766.88;5059975;28;20094;-65
2022/08/10 05:45:22;;;;;;;2.88;2.35;;;;;;;-143.66;100.00;63766.88;5060923;28;20139;-65
2022/08/10 05:47:48;;;;;;;2.55;2.35;;;;;;;-143.66;100.00;63766.88;5054664;28;20039;-65
2022/08/10 05:50:16;;;;;;;2.90;2.30;;;;;;;-143.66;100.00;63766.88;5061923;28;20040;-65
2022/08/10 05:52:41;;;;;;;2.97;2.50;;;;;;;-143.66;100.00;63766.88;5058655;28;20048;-65
2022/08/10 05:55:08;;;;;;;3.83;2.67;;;;;;;-143.66;100.00;63766.88;5056478;28;20063;-66
2022/08/10 05:57:35;;;;;;;2.67;2.45;;;;;;;-143.66;100.00;63766.88;5051146;28;20490;-65
2022/08/10 06:00:06;;;;;;;3.40;2.40;;;;;;;-143.66;100.00;63766.88;5057877;28;20047;-66
2022/08/10 06:02:44;;;;;;;11.13;5.32;;;;;;;-143.66;100.00;63766.88;5058304;28;20037;-70
2022/08/10 06:05:13;;;;;;;9.23;6.28;;;;;;;-143.66;100.00;63766.88;5055655;28;20032;-70
2022/08/10 06:07:45;;;;;;;8.85;5.40;;;;;;;-143.66;100.00;63766.88;5063229;28;20087;-72
2022/08/10 06:10:12;;;;;;;9.93;5.40;;;;;;;-143.66;100.00;63766.88;5065250;28;20052;-72
2022/08/10 06:12:39;;;;;;;10.98;5.75;;;;;;;-143.66;100.00;63766.88;5059599;28;20048;-72
2022/08/10 06:15:06;;;;;;;9.13;5.60;;;;;;;-143.66;100.00;63766.88;5058459;28;20032;-72
2022/08/10 06:17:32;;;;;;;11.15;5.05;;;;;;;-143.66;100.00;63766.88;5062664;28;20086;-72
2022/08/10 06:19:58;;;;;;;7.40;5.07;;;;;;;-143.66;100.00;63766.88;5059628;28;20040;-72
2022/08/10 06:22:32;;;;;;;13.40;5.55;;;;;;;-143.66;100.00;63766.88;5042556;28;20147;-71
2022/08/10 06:25:00;;;;;;;11.50;5.15;;;;;;;-143.66;100.00;63766.88;5066103;28;20506;-67
2022/08/10 06:27:25;;;;;;;7.25;4.93;;;;;;;-143.66;100.00;63766.88;5058280;28;20123;-67
2022/08/10 06:29:52;;;;;;;8.55;5.07;;;;;;;-143.66;100.00;63766.88;5068452;28;20108;-68
2022/08/10 06:32:24;;;;;;;7.90;4.78;;;;;;;-143.66;100.00;63766.88;5068156;28;20543;-68
2022/08/10 06:34:53;;;;;;;7.75;4.78;;;;;;;-143.66;100.00;63766.88;5060916;28;20064;-67
2022/08/10 06:37:23;;;;;;;9.68;4.60;;;;;;;-143.66;100.00;63766.88;5067308;28;20398;-67
2022/08/10 06:39:49;;;;;;;7.43;4.38;;;;;;;-143.66;100.00;63766.88;5061535;28;20402;-67
2022/08/10 06:42:36;;;;;;;6.18;4.15;;;;;;;-143.66;100.00;63766.88;5064048;28;20048;-67
2022/08/10 06:45:07;;;;;;;5.40;3.92;;;;;;;-143.66;100.00;63766.88;5063240;28;20063;-67
2022/08/10 06:47:47;;;;;;;10.90;4.43;;;;;;;-143.66;100.00;63766.88;5060592;28;20102;-67
2022/08/10 06:50:15;;;;;;;;;;;;;;;-143.66;100.00;63766.88;5050640;28;20032;-68
2022/08/10 06:52:42;;;;;;;6.57;4.18;;;;;;;-143.66;100.00;63766.88;5062932;28;19916;-68
2022/08/10 06:55:12;;;;;;;8.25;4.15;;;;;;;-143.66;100.00;63766.88;5063230;28;20492;-67
2022/08/10 06:57:39;;;;;;;;;;;;;;;-143.66;100.00;63766.88;5064603;28;20032;-67
2022/08/10 07:00:06;;;;;;;6.22;3.97;;;;;;;-143.66;100.00;63766.88;5061331;28;20015;-67
2022/08/10 07:02:42;;;;;;;6.85;4.40;;;;;;;-143.66;100.00;63766.88;5058640;28;20032;-69
2022/08/10 07:05:13;;;;;;;7.75;4.75;;;;;;;-143.66;100.00;63766.88;5059083;28;20046;-69
2022/08/10 07:07:42;;;;;;;11.68;4.90;;;;;;;-143.66;100.00;63766.88;5055600;28;20070;-70
2022/08/10 07:10:09;;;;;;;7.30;4.00;;;;;;;-143.66;100.00;63766.88;5067113;28;20021;-67
2022/08/10 07:12:36;;;;;;;6.30;4.00;;;;;;;-143.66;100.00;63766.88;5067813;28;20515;-68
2022/08/10 07:15:03;;;;;;;7.18;4.45;;;;;;;-143.66;100.00;63766.88;5063310;28;20490;-68
2022/08/10 07:17:30;;;;;;;5.68;3.78;;;;;;;-143.66;100.00;63766.88;5067326;28;20132;-69
2022/08/10 07:19:58;;;;;;;5.72;3.75;;;;;;;-143.66;100.00;63766.88;5065438;28;20036;-68
2022/08/10 07:22:30;;;;;;;7.60;4.15;;;;;;;-143.66;100.00;63766.88;5059881;28;20036;-68
2022/08/10 07:24:58;;;;;;;6.93;4.10;;;;;;;-143.66;100.00;63766.88;5066152;28;20044;-67
2022/08/10 07:27:25;;;;;;;6.88;4.47;;;;;;;-143.66;100.00;63766.88;5061072;28;20046;-66
2022/08/10 07:29:52;;;;;;;7.03;4.35;;;;;;;-143.66;100.00;63766.88;5064549;28;20052;-67
2022/08/10 07:32:20;;;;;;;6.70;3.72;;;;;;;-143.66;100.00;63766.88;5070582;28;20573;-66
2022/08/10 07:34:48;;;;;;;7.32;4.28;;;;;;;-143.66;100.00;63766.88;5062390;28;20473;-66
2022/08/10 07:37:15;;;;;;;5.57;3.72;;;;;;;-143.66;100.00;63766.88;5066575;28;20051;-66
2022/08/10 07:39:45;;;;;;;6.63;3.67;;;;;;;-143.66;100.00;63766.88;5043553;28;20032;-65
2022/08/10 07:42:13;;;;;;;5.00;3.70;;;;;;;-143.66;100.00;63766.88;5061998;28;20523;-65
2022/08/10 07:44:43;;;;;;;5.60;3.47;;;;;;;-143.66;100.00;63766.88;5067832;28;20048;-65
2022/08/10 07:47:14;;;;;;;7.65;3.95;;;;;;;-143.66;100.00;63766.88;5065327;28;20073;-65
2022/08/10 07:49:42;;;;;;;5.05;3.50;;;;;;;-143.66;100.00;63766.88;5065844;28;20068;-66
2022/08/10 07:52:09;;;;;;;6.07;3.65;;;;;;;-143.66;100.00;63766.88;5067815;28;20556;-66
2022/08/10 07:54:39;;;;;;;4.55;3.22;;;;;;;-143.66;100.00;63766.88;5060491;28;20047;-66
2022/08/10 07:57:09;;;;;;;6.47;3.40;;;;;;;-143.66;100.00;63766.88;5066180;28;20052;-65
2022/08/10 07:59:36;;;;;;;;;;;;;;;-143.66;100.00;63766.88;5056209;28;20060;-66
2022/08/10 08:02:05;;;;;;;4.68;3.50;;;;;;;-143.66;100.00;63766.88;5062150;28;19989;-66
2022/08/10 08:04:31;;;;;;;7.53;3.17;;;;;;;-143.66;100.00;63766.88;5065221;28;20040;-66
2022/08/10 08:06:59;;;;;;;5.95;3.15;;;;;;;-143.66;100.00;63766.88;5062960;28;20527;-66
2022/08/10 08:09:27;;;;;;;6.28;3.40;;;;;;;-143.66;100.00;63766.88;5061514;28;20059;-66
2022/08/10 08:11:53;;;;;;;5.93;3.30;;;;;;;-143.66;100.00;63766.88;5058862;28;20041;-66
2022/08/10 08:14:21;;;;;;;4.25;2.80;;;;;;;-143.66;100.00;63766.88;5066702;28;20043;-66
2022/08/10 08:16:49;;;;;;;7.38;3.50;;;;;;;-143.66;100.00;63766.88;5066506;28;20052;-66
2022/08/10 08:19:17;;;;;;;6.38;3.20;;;;;;;-143.66;100.00;63766.88;5063652;28;20046;-66
2022/08/10 08:21:43;;;;;;;4.18;2.83;;;;;;;-143.66;100.00;63766.88;5071453;28;20050;-65
2022/08/10 08:24:12;;;;;;;7.80;3.40;;;;;;;-143.66;100.00;63766.88;5060275;28;20211;-65
2022/08/10 08:26:40;;;;;;;6.28;3.47;;;;;;;-143.66;100.00;63766.88;5057522;28;20028;-66
2022/08/10 08:29:08;;;;;;;5.05;3.20;;;;;;;-143.66;100.00;63766.88;5065929;28;20101;-66
2022/08/10 08:31:35;;;;;;;5.03;3.20;;;;;;;-143.66;100.00;63766.88;5064305;28;20032;-64
2022/08/10 08:34:03;;;;;;;7.72;3.42;;;;;;;-143.66;100.00;63766.88;5060968;28;20060;-65
2022/08/10 08:36:30;;;;;;;10.15;3.45;;;;;;;-143.66;100.00;63766.88;5062411;28;20048;-65
2022/08/10 08:38:55;;;;;;;4.43;3.28;;;;;;;-143.66;100.00;63766.88;5060721;28;20033;-64
2022/08/10 08:41:49;;;;;;;8.40;3.30;;;;;;;-143.66;100.00;63766.88;5056808;28;20039;-65
2022/08/10 08:44:38;;;;;;;4.53;2.83;;;;;;;-143.66;100.00;63766.88;5060861;28;20036;-64
2022/08/10 08:47:40;;;;;;;6.15;3.50;;;;;;;-143.66;100.00;63766.88;5064408;28;20657;-64
2022/08/10 08:50:19;;;;;;;5.97;3.10;;;;;;;-143.66;100.00;63766.88;5062924;28;20494;-64
2022/08/10 08:52:56;;;;;;;4.53;2.90;;;;;;;-143.66;100.00;63766.88;5060285;28;20024;-64
2022/08/10 08:55:36;;;;;;;4.88;3.25;;;;;;;-143.66;100.00;63766.88;5058005;28;21628;-65
2022/08/10 08:58:01;;;;;;;4.95;3.30;;;;;;;-143.66;100.00;63766.88;5057888;28;20044;-64
2022/08/10 09:00:44;;;;;;;5.10;2.92;;;;;;;-143.66;100.00;63766.88;5058712;28;20037;-64
2022/08/10 09:03:19;;;;;;;8.18;3.50;;;;;;;-143.66;100.00;63766.88;5057254;28;20127;-65
2022/08/10 09:06:03;;;;;;;5.25;2.90;;;;;;;-143.66;100.00;63766.88;5061185;28;20812;-64
2022/08/10 09:08:58;;;;;;;4.25;3.20;;;;;;;-143.66;100.00;63766.88;5055757;28;20512;-65
2022/08/10 09:12:01;;;;;;;8.30;3.33;;;;;;;-143.66;100.00;63766.88;5057740;28;20037;-64
2022/08/10 09:14:37;;;;;;;7.30;3.25;;;;;;;-143.66;100.00;63766.88;5054408;28;20045;-65
2022/08/10 09:17:21;;;;;;;5.90;2.83;;;;;;;-143.66;100.00;63766.88;5051601;28;20036;-65
2022/08/10 09:20:00;;;;;;;6.65;3.03;;;;;;;-143.66;100.00;63766.88;5054983;28;20033;-65
2022/08/10 09:23:03;;;;;;;5.40;3.10;;;;;;;-143.66;100.00;63766.88;5052243;28;20040;-65
2022/08/10 09:25:35;;;;;;;5.05;2.88;;;;;;;-143.66;100.00;63766.88;5057343;28;20067;-65
2022/08/10 09:28:08;;;;;;;4.80;2.92;;;;;;;-143.66;100.00;63766.88;5058876;28;20043;-65
2022/08/10 09:30:39;;;;;;;5.35;3.00;;;;;;;-143.66;100.00;63766.88;5059015;28;20051;-65
2022/08/10 09:33:12;;;;;;;3.58;2.83;;;;;;;-143.66;100.00;63766.88;5055985;28;20115;-66
2022/08/10 09:35:53;;;;;;;5.22;3.10;;;;;;;-143.66;100.00;63766.88;5060638;28;20035;-66
2022/08/10 09:39:01;;;;;;;6.25;3.20;;;;;;;-143.66;100.00;63766.88;5060134;28;20028;-65
2022/08/10 09:41:49;;;;;;;5.53;3.03;;;;;;;-143.66;100.00;63766.88;5058254;28;20425;-66
2022/08/10 09:44:34;;;;;;;3.65;2.65;;;;;;;-143.66;100.00;63766.88;5064299;28;20202;-66
2022/08/10 09:47:22;;;;;;;4.85;3.20;;;;;;;-143.66;100.00;63766.88;5069814;28;20918;-65
2022/08/10 09:50:22;;;;;;;3.47;2.67;;;;;;;-143.66;100.00;63766.88;5061993;28;20035;-65
2022/08/10 09:53:23;;;;;;;3.58;2.72;;;;;;;-143.66;100.00;63766.88;5041472;28;20045;-65
2022/08/10 09:56:46;;;;;;;4.07;3.10;;;;;;;-143.66;100.00;63766.88;5041721;28;20036;-66
2022/08/10 09:59:23;;;;;;;4.07;3.05;;;;;;;-143.66;100.00;63766.88;5002449;28;20045;-65
2022/08/10 10:02:26;;;;;;;3.95;3.00;;;;;;;-143.66;100.00;63766.88;4999622;28;20037;-65
2022/08/10 10:05:10;;;;;;;5.70;2.97;;;;;;;-143.66;100.00;63766.88;5051197;28;20052;-65
2022/08/10 10:07:42;;;;;;;5.30;2.97;;;;;;;-143.66;100.00;63766.88;5061918;28;20069;-66
2022/08/10 10:10:28;;;;;;;4.10;2.70;;;;;;;-143.66;100.00;63766.88;5058545;28;20036;-66
2022/08/10 10:13:02;;;;;;;4.45;2.92;;;;;;;-143.66;100.00;63766.88;5058536;28;20604;-65
2022/08/10 10:15:36;;;;;;;3.80;2.58;;;;;;;-143.66;100.00;63766.88;5064098;28;20546;-66
2022/08/10 10:18:01;;;;;;;3.70;2.90;;;;;;;-143.66;100.00;63766.88;5060566;28;20032;-65
2022/08/10 10:20:32;;;;;;;3.53;2.88;;;;;;;-143.66;100.00;63766.88;5056333;28;20372;-66
2022/08/10 10:23:10;;;;;;;3.25;2.65;;;;;;;-143.66;100.00;63766.88;5068542;28;20044;-66
2022/08/10 10:25:42;;;;;;;3.67;2.72;;;;;;;-143.66;100.00;63766.88;5063127;28;20045;-66
2022/08/10 10:28:30;;;;;;;3.70;2.88;;;;;;;-143.66;100.00;63766.88;5061978;28;20041;-66
2022/08/10 10:31:41;;;;;;;4.50;3.20;;;;;;;-143.66;100.00;63766.88;5063256;28;20123;-65
2022/08/10 10:34:16;;;;;;;3.65;2.58;;;;;;;-143.66;100.00;63766.88;4998543;28;20041;-65
2022/08/10 10:36:44;;;;;;;4.20;2.83;;;;;;;-143.66;100.00;63766.88;5054611;28;20056;-65
2022/08/10 10:39:17;;;;;;;4.35;3.00;;;;;;;-143.66;100.00;63766.88;5051299;28;20402;-66
2022/08/10 10:41:55;;;;;;;4.00;2.83;;;;;;;-143.66;100.00;63766.88;5055001;28;20033;-66
2022/08/10 10:44:59;;;;;;;3.67;3.08;;;;;;;-143.66;100.00;63766.88;5057008;28;20041;-65
2022/08/10 10:48:05;;;;;;;3.70;2.88;;;;;;;-143.66;100.00;63766.88;5058437;28;20032;-65
2022/08/10 10:50:42;;;;;;;3.75;2.92;;;;;;;-143.66;100.00;63766.88;5056593;28;20102;-65
2022/08/10 10:53:26;;;;;;;3.05;2.75;;;;;;;-143.66;100.00;63766.88;5056977;28;20040;-66
2022/08/10 10:56:01;;;;;;;3.65;2.80;;;;;;;-143.66;100.00;63766.88;5066893;28;20040;-66
2022/08/10 10:58:37;;;;;;;3.53;3.17;;;;;;;-143.66;100.00;63766.88;5058116;28;20040;-66
2022/08/10 11:01:09;;;;;;;4.68;3.15;;;;;;;-143.66;100.00;63766.88;5057363;28;20494;-66
2022/08/10 11:03:37;;;;;;;4.07;3.03;;;;;;;-143.66;100.00;63766.88;5042162;28;20284;-65
2022/08/10 11:06:23;;;;;;;3.80;3.15;;;;;;;-143.66;100.00;63766.88;5059474;28;20047;-66
2022/08/10 11:08:56;;;;;;;3.97;3.10;;;;;;;-143.66;100.00;63766.88;5059564;28;20075;-65
2022/08/10 11:11:35;;;;;;;4.90;2.90;;;;;;;-143.66;100.00;63766.88;5059049;28;20048;-66
2022/08/10 11:14:04;;;;;;;4.53;3.10;;;;;;;-143.66;100.00;63766.88;5067277;28;20790;-65
2022/08/10 11:16:42;;;;;;;;;;;;;;;-143.66;100.00;63766.88;5057526;28;20109;-66
2022/08/10 11:19:18;;;;;;;3.20;2.67;;;;;;;-143.66;100.00;63766.88;5063718;28;20055;-66
2022/08/10 11:22:02;;;;;;;2.95;2.70;;;;;;;-143.66;100.00;63766.88;5065646;28;20040;-65
2022/08/10 11:24:33;;;;;;;4.75;2.83;;;;;;;-143.66;100.00;63766.88;5061048;28;20044;-66
2022/08/10 11:27:30;;;;;;;3.28;2.90;;;;;;;-143.66;100.00;63766.88;5042124;28;20028;-65
2022/08/10 11:30:09;;;;;;;3.25;2.70;;;;;;;-143.66;100.00;63766.88;5068185;28;20640;-65
2022/08/10 11:32:43;;;;;;;3.97;2.90;;;;;;;-143.66;100.00;63766.88;5059949;28;20032;-66
2022/08/10 11:35:27;;;;;;;3.80;2.90;;;;;;;-143.66;100.00;63766.88;5063559;28;20224;-66